createdAt,value
2023-07-17T00:04:36.092Z,99601.84
2023-07-17T00:10:42.596Z,99789.91
2023-07-17T00:16:51.471Z,99619.97
2023-07-17T00:23:09.458Z,99725.72
2023-07-17T00:29:32.183Z,99921.81
2023-07-17T00:35:37.842Z,99922.56
2023-07-17T00:41:45.575Z,99772.06
2023-07-17T00:47:52.833Z,99688.09
2023-07-17T00:53:57.093Z,99701.81
2023-07-17T01:00:01.539Z,99750.69
2023-07-17T01:06:04.036Z,99685.16
2023-07-17T01:12:06.473Z,99845.84
2023-07-17T01:18:10.043Z,99799.31
2023-07-17T01:24:12.432Z,99906.84
2023-07-17T01:30:14.871Z,99910.03
2023-07-17T01:36:18.438Z,99918.13
2023-07-17T01:42:28.962Z,99791.03
2023-07-17T01:48:30.847Z,99913.13
2023-07-17T01:54:35.890Z,99926.28
2023-07-17T02:00:38.329Z,99867.59
2023-07-17T02:06:42.796Z,99707.78
2023-07-17T02:12:48.262Z,99834.28
2023-07-17T02:19:05.801Z,99957.50
2023-07-17T02:25:09.566Z,99921.69
2023-07-17T02:31:16.007Z,99895.09
2023-07-17T02:37:24.188Z,99817.34
2023-07-17T02:43:26.647Z,99898.41
2023-07-17T02:49:29.125Z,99900.41
2023-07-17T02:55:31.659Z,99888.19
2023-07-17T03:01:40.162Z,99936.84
2023-07-17T03:07:45.541Z,99866.94
2023-07-17T03:13:48.098Z,99879.69
2023-07-17T03:19:52.568Z,99766.38
2023-07-17T03:26:10.086Z,99878.75
2023-07-17T03:32:12.610Z,99981.75
2023-07-17T03:38:30.103Z,99926.41
2023-07-17T03:44:32.660Z,99973.22
2023-07-17T03:50:37.075Z,99978.69
2023-07-17T03:56:41.564Z,99837.22
2023-07-17T04:02:47.051Z,100004.81
2023-07-17T04:08:49.468Z,100002.38
2023-07-17T04:14:55.453Z,100000.81
2023-07-17T04:20:58.391Z,99883.91
2023-07-17T04:27:01.848Z,99882.13
2023-07-17T04:33:06.479Z,99993.41
2023-07-17T04:39:45.741Z,100021.69
2023-07-17T04:46:00.481Z,99989.81
2023-07-17T04:52:38.139Z,100027.63
2023-07-17T04:58:45.125Z,100038.72
2023-07-17T05:05:20.218Z,100027.31
2023-07-17T05:11:28.734Z,100034.72
2023-07-17T05:17:49.402Z,99924.44
2023-07-17T05:23:55.737Z,100032.16
2023-07-17T05:30:09.579Z,99982.38
2023-07-17T05:36:13.010Z,100024.22
2023-07-17T05:42:19.755Z,99986.91
2023-07-17T05:48:29.656Z,99992.31
2023-07-17T05:54:47.252Z,100047.06
2023-07-17T06:00:54.912Z,100031.03
2023-07-17T06:06:59.965Z,100047.34
2023-07-17T06:13:10.920Z,99694.66
2023-07-17T06:19:22.210Z,100046.97
2023-07-17T06:25:27.690Z,100052.41
2023-07-17T06:31:29.782Z,99988.09
2023-07-17T06:37:44.670Z,100045.06
2023-07-17T06:43:47.110Z,100007.03
2023-07-17T06:50:10.545Z,100046.69
2023-07-17T06:56:15.739Z,99953.94
2023-07-17T07:02:19.737Z,100040.66
2023-07-17T07:08:30.910Z,100028.47
2023-07-17T07:14:45.351Z,100028.41
2023-07-17T07:20:53.602Z,100035.00
2023-07-17T07:27:01.720Z,99728.81
2023-07-17T07:33:04.015Z,100035.44
2023-07-17T07:39:13.473Z,100031.59
2023-07-17T07:45:22.178Z,100034.78
2023-07-17T07:51:36.477Z,100025.81
2023-07-17T07:58:01.715Z,99877.66
2023-07-17T08:04:06.275Z,99927.22
2023-07-17T08:10:42.352Z,100022.69
2023-07-17T08:16:59.071Z,100013.75
2023-07-17T08:23:04.340Z,100014.38
2023-07-17T08:29:22.527Z,99769.50
2023-07-17T08:35:29.446Z,99991.63
2023-07-17T08:41:31.969Z,99864.19
2023-07-17T08:48:08.558Z,100002.22
2023-07-17T08:54:30.159Z,100012.34
2023-07-17T09:00:52.167Z,100008.41
2023-07-17T09:07:01.922Z,100013.13
2023-07-17T09:13:56.237Z,100013.94
2023-07-17T09:20:26.666Z,100003.38
2023-07-17T09:26:39.473Z,99877.53
2023-07-17T09:32:50.245Z,99754.75
2023-07-17T09:38:56.680Z,99940.25
2023-07-17T09:45:00.281Z,99891.53
2023-07-17T09:51:15.971Z,99751.66
2023-07-17T09:57:35.290Z,99989.50
2023-07-17T10:03:40.736Z,99984.81
2023-07-17T10:09:45.837Z,99948.03
2023-07-17T10:15:51.553Z,99938.91
2023-07-17T10:22:36.563Z,99976.22
2023-07-17T10:28:39.998Z,99866.03
2023-07-17T10:34:54.517Z,99906.69
2023-07-17T10:41:17.290Z,99970.66
2023-07-17T10:47:27.825Z,99954.22
2023-07-17T10:53:32.033Z,99808.59
2023-07-17T10:59:37.799Z,99838.13
2023-07-17T11:05:45.745Z,99945.75
2023-07-17T11:11:54.813Z,99944.72
2023-07-17T11:18:06.364Z,99941.97
2023-07-17T11:24:08.618Z,99878.38
2023-07-17T11:30:26.354Z,99748.41
2023-07-17T11:36:39.828Z,99919.66
2023-07-17T11:43:05.405Z,99915.47
2023-07-17T11:49:08.396Z,99832.09
2023-07-17T11:55:36.495Z,99887.28
2023-07-17T12:01:42.674Z,99879.56
2023-07-17T12:07:46.590Z,99878.03
2023-07-17T12:13:49.683Z,99807.13
2023-07-17T12:19:51.570Z,99738.03
2023-07-17T12:25:53.373Z,99864.09
2023-07-17T12:31:57.034Z,99802.19
2023-07-17T12:38:00.489Z,99838.88
2023-07-17T12:44:37.047Z,99839.91
2023-07-17T12:50:40.646Z,99844.00
2023-07-17T12:56:47.861Z,99825.84
2023-07-17T13:02:50.665Z,99711.28
2023-07-17T13:08:56.950Z,99765.03
2023-07-17T13:15:00.469Z,99703.81
2023-07-17T13:21:02.606Z,99639.16
2023-07-17T13:27:09.596Z,99745.00
2023-07-17T13:33:11.972Z,99738.41
2023-07-17T13:39:16.669Z,99765.69
2023-07-17T13:45:42.586Z,99589.69
2023-07-17T13:51:49.063Z,99763.69
2023-07-17T13:58:06.446Z,99662.28
2023-07-17T14:04:24.225Z,99698.22
2023-07-17T14:17:04.181Z,99500.72
2023-07-17T14:23:25.625Z,99746.25
2023-07-17T14:30:10.091Z,99727.13
2023-07-17T14:36:49.310Z,99524.88
2023-07-17T14:43:59.893Z,99464.31
2023-07-17T14:58:02.365Z,99426.75
2023-07-17T15:04:17.832Z,99434.66
2023-07-17T15:17:47.045Z,99629.44
2023-07-17T15:39:08.475Z,99415.97
2023-07-17T15:58:14.514Z,99419.25
2023-07-17T15:59:14.162Z,99707.41
2023-07-17T16:05:17.256Z,99603.53
2023-07-17T17:02:31.303Z,99453.84
2023-07-17T17:28:08.656Z,99704.09
2023-07-17T17:34:13.442Z,99719.78
2023-07-17T17:40:15.429Z,99704.34
2023-07-17T17:46:27.999Z,99392.69
2023-07-17T17:52:33.756Z,99611.97
2023-07-17T17:58:50.678Z,99497.53
2023-07-17T18:05:03.236Z,99654.31
2023-07-17T18:11:13.843Z,99607.41
2023-07-17T18:17:41.059Z,99703.06
2023-07-17T18:23:43.861Z,99657.19
2023-07-17T18:29:51.378Z,99568.34
2023-07-17T18:35:55.834Z,99619.19
2023-07-17T18:42:11.402Z,99610.50
2023-07-17T18:48:20.576Z,99374.16
2023-07-17T18:54:35.410Z,99718.22
2023-07-17T19:00:44.903Z,99533.03
2023-07-17T19:07:08.494Z,99718.44
2023-07-17T19:13:22.044Z,99348.19
2023-07-17T19:19:34.519Z,99436.56
2023-07-17T19:25:46.368Z,99556.06
2023-07-17T19:31:49.499Z,99606.28
2023-07-17T19:44:08.466Z,99533.13
2023-07-17T19:50:41.256Z,99389.34
2023-07-17T19:56:46.459Z,99704.66
2023-07-17T20:02:49.042Z,99651.13
2023-07-17T20:08:57.988Z,99583.59
2023-07-17T20:15:30.181Z,99572.31
2023-07-17T20:21:55.556Z,99667.56
2023-07-17T20:28:23.561Z,99599.97
2023-07-17T20:41:52.739Z,99313.44
2023-07-17T20:48:09.752Z,99398.13
2023-07-17T20:53:19.346Z,99476.13
2023-07-17T20:54:32.591Z,99247.00
2023-07-17T21:00:54.421Z,99639.34
2023-07-17T21:07:00.944Z,99534.78
2023-07-17T21:13:13.013Z,99650.75
2023-07-17T21:19:23.040Z,99480.50
2023-07-17T21:25:37.381Z,99648.47
2023-07-17T21:31:55.179Z,99424.50
2023-07-17T21:38:02.736Z,99442.28
2023-07-17T21:44:21.375Z,99333.72
2023-07-17T21:50:39.579Z,99564.84
2023-07-17T21:56:42.498Z,99434.13
2023-07-17T22:02:54.842Z,99422.97
2023-07-17T22:09:07.420Z,99415.13
2023-07-17T22:15:48.045Z,99627.41
2023-07-17T22:22:05.176Z,99512.56
2023-07-17T22:28:17.808Z,99576.50
2023-07-17T22:34:23.398Z,99506.75
2023-07-17T22:40:36.946Z,99482.53
2023-07-17T22:46:48.502Z,99597.22
2023-07-17T22:52:51.809Z,99483.53
2023-07-17T22:59:26.622Z,99397.34
2023-07-17T23:05:32.993Z,99550.06
2023-07-17T23:11:41.355Z,99543.91
2023-07-17T23:17:52.815Z,99521.34
2023-07-17T23:23:55.512Z,99519.09
2023-07-17T23:30:22.157Z,99559.19
2023-07-17T23:36:35.131Z,99347.09
2023-07-17T23:42:43.737Z,99501.53
2023-07-17T23:49:12.634Z,99568.88
2023-07-17T23:55:53.592Z,99237.97
